sensor_id;sensor_type;location;lat;lon;timestamp;pressure;altitude;pressure_sealevel;temperature;humidity
50790;BME280;37287;47.554;7.844;2023-02-13T00:00:51;99663.41;;;0.83;100.00
50790;BME280;37287;47.554;7.844;2023-02-13T00:03:21;99660.47;;;0.90;100.00
50790;BME280;37287;47.554;7.844;2023-02-13T00:05:48;99659.94;;;0.98;100.00
50790;BME280;37287;47.554;7.844;2023-02-13T00:08:14;99658.88;;;0.99;100.00
50790;BME280;37287;47.554;7.844;2023-02-13T00:10:42;99647.38;;;1.09;100.00
50790;BME280;37287;47.554;7.844;2023-02-13T00:13:09;99661.78;;;1.13;100.00
50790;BME280;37287;47.554;7.844;2023-02-13T00:15:35;99664.44;;;1.24;100.00
50790;BME280;37287;47.554;7.844;2023-02-13T00:18:04;99661.78;;;1.29;100.00
50790;BME280;37287;47.554;7.844;2023-02-13T00:20:31;99656.69;;;1.32;100.00
50790;BME280;37287;47.554;7.844;2023-02-13T00:22:58;99663.88;;;1.42;100.00
50790;BME280;37287;47.554;7.844;2023-02-13T00:25:26;99663.88;;;1.47;100.00
50790;BME280;37287;47.554;7.844;2023-02-13T00:27:53;99664.38;;;1.54;100.00
50790;BME280;37287;47.554;7.844;2023-02-13T00:30:20;99662.78;;;1.59;100.00
50790;BME280;37287;47.554;7.844;2023-02-13T00:32:51;99664.34;;;1.65;100.00
50790;BME280;37287;47.554;7.844;2023-02-13T00:35:17;99659.56;;;1.62;100.00
50790;BME280;37287;47.554;7.844;2023-02-13T00:37:44;99668.63;;;1.66;100.00
50790;BME280;37287;47.554;7.844;2023-02-13T00:40:11;99674.19;;;1.69;100.00
50790;BME280;37287;47.554;7.844;2023-02-13T00:42:37;99666.47;;;1.73;100.00
50790;BME280;37287;47.554;7.844;2023-02-13T00:45:04;99672.31;;;1.75;100.00
50790;BME280;37287;47.554;7.844;2023-02-13T00:47:32;99672.84;;;1.77;100.00
50790;BME280;37287;47.554;7.844;2023-02-13T00:49:59;99665.91;;;1.76;100.00
50790;BME280;37287;47.554;7.844;2023-02-13T00:52:25;99671.25;;;1.81;100.00
50790;BME280;37287;47.554;7.844;2023-02-13T00:54:54;99667.22;;;1.84;100.00
50790;BME280;37287;47.554;7.844;2023-02-13T00:57:20;99674.13;;;1.90;100.00
50790;BME280;37287;47.554;7.844;2023-02-13T00:59:47;99666.34;;;1.99;100.00
50790;BME280;37287;47.554;7.844;2023-02-13T01:02:17;99666.34;;;1.99;100.00
50790;BME280;37287;47.554;7.844;2023-02-13T01:04:43;99668.47;;;2.02;100.00
50790;BME280;37287;47.554;7.844;2023-02-13T01:07:10;99666.06;;;2.00;100.00
50790;BME280;37287;47.554;7.844;2023-02-13T01:09:40;99664.47;;;2.04;100.00
50790;BME280;37287;47.554;7.844;2023-02-13T01:12:09;99670.84;;;2.09;100.00
50790;BME280;37287;47.554;7.844;2023-02-13T01:14:36;99665.78;;;2.12;100.00
50790;BME280;37287;47.554;7.844;2023-02-13T01:17:02;99664.69;;;2.13;100.00
50790;BME280;37287;47.554;7.844;2023-02-13T01:19:29;99668.94;;;2.14;100.00
50790;BME280;37287;47.554;7.844;2023-02-13T01:21:55;99672.13;;;2.16;100.00
50790;BME280;37287;47.554;7.844;2023-02-13T01:24:24;99669.47;;;2.16;100.00
50790;BME280;37287;47.554;7.844;2023-02-13T01:26:55;99664.63;;;2.23;100.00
50790;BME280;37287;47.554;7.844;2023-02-13T01:29:23;99669.16;;;2.28;100.00
50790;BME280;37287;47.554;7.844;2023-02-13T01:31:59;99674.22;;;2.30;100.00
50790;BME280;37287;47.554;7.844;2023-02-13T01:34:27;99670.47;;;2.31;100.00
50790;BME280;37287;47.554;7.844;2023-02-13T01:36:54;99668.59;;;2.31;100.00
50790;BME280;37287;47.554;7.844;2023-02-13T01:39:22;99674.19;;;2.35;100.00
50790;BME280;37287;47.554;7.844;2023-02-13T01:41:49;99671.53;;;2.35;100.00
50790;BME280;37287;47.554;7.844;2023-02-13T01:44:45;99672.59;;;2.34;100.00
50790;BME280;37287;47.554;7.844;2023-02-13T01:47:17;99672.88;;;2.32;100.00
50790;BME280;37287;47.554;7.844;2023-02-13T01:49:50;99670.47;;;2.31;100.00
50790;BME280;37287;47.554;7.844;2023-02-13T01:52:21;99672.06;;;2.32;100.00
50790;BME280;37287;47.554;7.844;2023-02-13T01:54:49;99671.53;;;2.30;100.00
50790;BME280;37287;47.554;7.844;2023-02-13T01:57:19;99669.94;;;2.29;100.00
50790;BME280;37287;47.554;7.844;2023-02-13T02:00:02;99677.44;;;2.27;100.00
50790;BME280;37287;47.554;7.844;2023-02-13T02:02:35;99685.97;;;2.29;100.00
50790;BME280;37287;47.554;7.844;2023-02-13T02:05:07;99661.91;;;2.34;100.00
50790;BME280;37287;47.554;7.844;2023-02-13T02:07:35;99673.00;;;2.51;100.00
50790;BME280;37287;47.554;7.844;2023-02-13T02:10:06;99675.00;;;2.75;100.00
50790;BME280;37287;47.554;7.844;2023-02-13T02:12:41;99677.56;;;2.90;100.00
50790;BME280;37287;47.554;7.844;2023-02-13T02:15:10;99668.97;;;2.93;100.00
50790;BME280;37287;47.554;7.844;2023-02-13T02:17:41;99675.31;;;3.03;100.00
50790;BME280;37287;47.554;7.844;2023-02-13T02:20:23;99668.13;;;2.98;100.00
50790;BME280;37287;47.554;7.844;2023-02-13T02:29:15;99659.31;;;2.98;100.00
50790;BME280;37287;47.554;7.844;2023-02-13T02:37:17;99653.19;;;2.92;100.00
50790;BME280;37287;47.554;7.844;2023-02-13T02:42:29;99644.38;;;2.91;100.00
50790;BME280;37287;47.554;7.844;2023-02-13T02:45:24;99639.34;;;2.85;100.00
50790;BME280;37287;47.554;7.844;2023-02-13T02:48:06;99650.94;;;2.75;100.00
50790;BME280;37287;47.554;7.844;2023-02-13T02:51:06;99648.56;;;2.68;100.00
50790;BME280;37287;47.554;7.844;2023-02-13T02:53:44;99649.44;;;2.58;100.00
50790;BME280;37287;47.554;7.844;2023-02-13T02:56:19;99647.59;;;2.54;100.00
50790;BME280;37287;47.554;7.844;2023-02-13T02:58:56;99658.22;;;2.64;100.00
50790;BME280;37287;47.554;7.844;2023-02-13T03:01:46;99656.88;;;2.67;100.00
50790;BME280;37287;47.554;7.844;2023-02-13T03:04:38;99655.22;;;2.71;100.00
50790;BME280;37287;47.554;7.844;2023-02-13T03:07:24;99655.78;;;2.73;100.00
50790;BME280;37287;47.554;7.844;2023-02-13T03:09:59;99652.56;;;2.71;100.00
50790;BME280;37287;47.554;7.844;2023-02-13T03:15:45;99664.03;;;2.71;100.00
50790;BME280;37287;47.554;7.844;2023-02-13T03:18:37;99654.91;;;2.78;100.00
50790;BME280;37287;47.554;7.844;2023-02-13T03:24:24;99659.16;;;2.84;100.00
50790;BME280;37287;47.554;7.844;2023-02-13T03:41:11;99668.38;;;3.02;100.00
50790;BME280;37287;47.554;7.844;2023-02-13T03:43:54;99670.50;;;3.00;100.00
50790;BME280;37287;47.554;7.844;2023-02-13T03:46:29;99669.44;;;3.01;100.00
50790;BME280;37287;47.554;7.844;2023-02-13T03:48:58;99674.22;;;3.04;100.00
50790;BME280;37287;47.554;7.844;2023-02-13T03:51:52;99671.53;;;3.04;100.00
50790;BME280;37287;47.554;7.844;2023-02-13T03:54:24;99678.78;;;3.03;100.00
50790;BME280;37287;47.554;7.844;2023-02-13T03:57:16;99682.53;;;3.02;100.00
50790;BME280;37287;47.554;7.844;2023-02-13T04:00:07;99687.59;;;3.04;100.00
50790;BME280;37287;47.554;7.844;2023-02-13T04:02:45;99688.16;;;3.01;100.00
50790;BME280;37287;47.554;7.844;2023-02-13T04:05:21;99680.72;;;2.98;100.00
50790;BME280;37287;47.554;7.844;2023-02-13T04:07:51;99686.34;;;2.96;100.00
50790;BME280;37287;47.554;7.844;2023-02-13T04:10:18;99685.03;;;2.93;100.00
50790;BME280;37287;47.554;7.844;2023-02-13T04:15:43;99678.91;;;2.88;100.00
50790;BME280;37287;47.554;7.844;2023-02-13T04:18:16;99693.88;;;2.89;100.00
50790;BME280;37287;47.554;7.844;2023-02-13T04:20:44;99690.97;;;2.85;100.00
50790;BME280;37287;47.554;7.844;2023-02-13T04:23:11;99700.34;;;2.83;100.00
50790;BME280;37287;47.554;7.844;2023-02-13T04:25:40;99695.56;;;2.80;100.00
50790;BME280;37287;47.554;7.844;2023-02-13T04:28:09;99711.59;;;2.80;100.00
50790;BME280;37287;47.554;7.844;2023-02-13T04:30:37;99708.13;;;2.79;100.00
50790;BME280;37287;47.554;7.844;2023-02-13T04:33:05;99700.69;;;2.76;100.00
50790;BME280;37287;47.554;7.844;2023-02-13T04:35:36;99698.56;;;2.73;100.00
50790;BME280;37287;47.554;7.844;2023-02-13T04:38:03;99699.63;;;2.72;100.00
50790;BME280;37287;47.554;7.844;2023-02-13T04:40:30;99694.56;;;2.70;100.00
50790;BME280;37287;47.554;7.844;2023-02-13T04:42:58;99706.31;;;2.69;100.00
50790;BME280;37287;47.554;7.844;2023-02-13T04:45:27;99704.72;;;2.68;100.00
50790;BME280;37287;47.554;7.844;2023-02-13T04:47:55;99702.59;;;2.65;100.00
50790;BME280;37287;47.554;7.844;2023-02-13T04:50:24;99704.50;;;2.65;100.00
50790;BME280;37287;47.554;7.844;2023-02-13T04:52:55;99704.78;;;2.63;100.00
50790;BME280;37287;47.554;7.844;2023-02-13T04:55:26;99698.09;;;2.61;100.00
50790;BME280;37287;47.554;7.844;2023-02-13T04:57:55;99698.66;;;2.57;100.00
50790;BME280;37287;47.554;7.844;2023-02-13T05:00:24;99701.06;;;2.59;100.00
50790;BME280;37287;47.554;7.844;2023-02-13T05:02:51;99708.81;;;2.55;100.00
50790;BME280;37287;47.554;7.844;2023-02-13T05:05:20;99697.06;;;2.51;100.00
50790;BME280;37287;47.554;7.844;2023-02-13T05:07:46;99695.75;;;2.49;100.00
50790;BME280;37287;47.554;7.844;2023-02-13T05:10:13;99700.59;;;2.47;100.00
50790;BME280;37287;47.554;7.844;2023-02-13T05:12:39;99703.53;;;2.45;100.00
50790;BME280;37287;47.554;7.844;2023-02-13T05:15:07;99695.53;;;2.45;100.00
50790;BME280;37287;47.554;7.844;2023-02-13T05:17:35;99693.13;;;2.44;100.00
50790;BME280;37287;47.554;7.844;2023-02-13T05:20:15;99687.50;;;2.40;100.00
50790;BME280;37287;47.554;7.844;2023-02-13T05:22:48;99698.78;;;2.37;100.00
50790;BME280;37287;47.554;7.844;2023-02-13T05:25:36;99693.19;;;2.33;100.00
50790;BME280;37287;47.554;7.844;2023-02-13T05:28:04;99688.63;;;2.34;100.00
50790;BME280;37287;47.554;7.844;2023-02-13T05:30:51;99691.88;;;2.31;100.00
50790;BME280;37287;47.554;7.844;2023-02-13T05:33:19;99700.16;;;2.29;100.00
50790;BME280;37287;47.554;7.844;2023-02-13T05:35:48;99699.88;;;2.31;100.00
50790;BME280;37287;47.554;7.844;2023-02-13T05:38:20;99702.00;;;2.29;100.00
50790;BME280;37287;47.554;7.844;2023-02-13T05:40:47;99697.50;;;2.29;100.00
50790;BME280;37287;47.554;7.844;2023-02-13T05:43:14;99696.16;;;2.27;100.00
50790;BME280;37287;47.554;7.844;2023-02-13T05:45:42;99701.50;;;2.21;100.00
50790;BME280;37287;47.554;7.844;2023-02-13T05:48:09;99696.97;;;2.22;100.00
50790;BME280;37287;47.554;7.844;2023-02-13T05:50:36;99702.31;;;2.22;100.00
50790;BME280;37287;47.554;7.844;2023-02-13T05:53:02;99703.41;;;2.21;100.00
50790;BME280;37287;47.554;7.844;2023-02-13T05:55:29;99700.72;;;2.21;100.00
50790;BME280;37287;47.554;7.844;2023-02-13T05:57:56;99713.28;;;2.20;100.00
50790;BME280;37287;47.554;7.844;2023-02-13T06:00:24;99697.25;;;2.20;100.00
50790;BME280;37287;47.554;7.844;2023-02-13T06:02:50;99713.00;;;2.22;100.00
50790;BME280;37287;47.554;7.844;2023-02-13T06:05:17;99694.56;;;2.20;100.00
50790;BME280;37287;47.554;7.844;2023-02-13T06:07:44;99707.66;;;2.22;100.00
50790;BME280;37287;47.554;7.844;2023-02-13T06:10:10;99702.59;;;2.20;100.00
50790;BME280;37287;47.554;7.844;2023-02-13T06:12:37;99702.06;;;2.18;100.00
50790;BME280;37287;47.554;7.844;2023-02-13T06:15:04;99717.03;;;2.19;100.00
50790;BME280;37287;47.554;7.844;2023-02-13T06:17:31;99715.44;;;2.18;100.00
50790;BME280;37287;47.554;7.844;2023-02-13T06:19:57;99717.56;;;2.16;100.00
50790;BME280;37287;47.554;7.844;2023-02-13T06:22:30;99723.19;;;2.15;100.00
50790;BME280;37287;47.554;7.844;2023-02-13T06:24:57;99724.25;;;2.19;100.00
50790;BME280;37287;47.554;7.844;2023-02-13T06:27:23;99724.50;;;2.22;100.00
50790;BME280;37287;47.554;7.844;2023-02-13T06:29:50;99729.84;;;2.22;100.00
50790;BME280;37287;47.554;7.844;2023-02-13T06:32:17;99715.66;;;2.22;100.00
50790;BME280;37287;47.554;7.844;2023-02-13T06:34:43;99725.28;;;2.23;100.00
50790;BME280;37287;47.554;7.844;2023-02-13T06:37:14;99743.72;;;2.24;100.00
50790;BME280;37287;47.554;7.844;2023-02-13T06:39:40;99730.63;;;2.23;100.00
50790;BME280;37287;47.554;7.844;2023-02-13T06:42:08;99732.53;;;2.22;100.00
50790;BME280;37287;47.554;7.844;2023-02-13T06:44:34;99735.44;;;2.26;100.00
50790;BME280;37287;47.554;7.844;2023-02-13T06:47:03;99732.75;;;2.26;100.00
50790;BME280;37287;47.554;7.844;2023-02-13T06:49:30;99732.25;;;2.24;100.00
50790;BME280;37287;47.554;7.844;2023-02-13T06:51:58;99734.63;;;2.26;100.00
50790;BME280;37287;47.554;7.844;2023-02-13T06:54:25;99733.78;;;2.35;100.00
50790;BME280;37287;47.554;7.844;2023-02-13T06:57:11;99727.66;;;2.35;100.00
50790;BME280;37287;47.554;7.844;2023-02-13T06:59:39;99730.34;;;2.30;100.00
50790;BME280;37287;47.554;7.844;2023-02-13T07:02:08;99738.63;;;2.28;100.00
50790;BME280;37287;47.554;7.844;2023-02-13T07:04:35;99740.53;;;2.28;100.00
50790;BME280;37287;47.554;7.844;2023-02-13T07:07:06;99737.84;;;2.28;100.00
50790;BME280;37287;47.554;7.844;2023-02-13T07:09:32;99750.13;;;2.29;100.00
50790;BME280;37287;47.554;7.844;2023-02-13T07:12:07;99741.03;;;2.30;100.00
50790;BME280;37287;47.554;7.844;2023-02-13T07:14:40;99742.66;;;2.31;100.00
50790;BME280;37287;47.554;7.844;2023-02-13T07:17:06;99750.09;;;2.34;100.00
50790;BME280;37287;47.554;7.844;2023-02-13T07:19:33;99743.69;;;2.35;100.00
50790;BME280;37287;47.554;7.844;2023-02-13T07:22:00;99755.69;;;2.37;100.00
50790;BME280;37287;47.554;7.844;2023-02-13T07:24:30;99754.91;;;2.37;100.00
50790;BME280;37287;47.554;7.844;2023-02-13T07:26:58;99758.63;;;2.41;100.00
50790;BME280;37287;47.554;7.844;2023-02-13T07:29:26;99752.72;;;2.44;100.00
50790;BME280;37287;47.554;7.844;2023-02-13T07:31:52;99745.25;;;2.46;100.00
50790;BME280;37287;47.554;7.844;2023-02-13T07:34:19;99748.44;;;2.48;100.00
50790;BME280;37287;47.554;7.844;2023-02-13T07:36:52;99745.75;;;2.53;100.00
50790;BME280;37287;47.554;7.844;2023-02-13T07:39:18;99745.97;;;2.57;100.00
50790;BME280;37287;47.554;7.844;2023-02-13T07:42:09;99749.69;;;2.61;100.00
50790;BME280;37287;47.554;7.844;2023-02-13T07:44:39;99747.00;;;2.66;100.00
50790;BME280;37287;47.554;7.844;2023-02-13T07:47:06;99746.44;;;2.74;100.00
50790;BME280;37287;47.554;7.844;2023-02-13T07:49:33;99741.06;;;2.74;100.00
50790;BME280;37287;47.554;7.844;2023-02-13T07:51:59;99744.53;;;2.80;100.00
50790;BME280;37287;47.554;7.844;2023-02-13T07:54:27;99749.78;;;2.90;100.00
50790;BME280;37287;47.554;7.844;2023-02-13T07:56:56;99732.66;;;2.91;100.00
50790;BME280;37287;47.554;7.844;2023-02-13T07:59:27;99757.25;;;2.93;100.00
50790;BME280;37287;47.554;7.844;2023-02-13T08:01:55;99738.50;;;2.99;100.00
50790;BME280;37287;47.554;7.844;2023-02-13T08:04:22;99746.81;;;2.97;100.00
50790;BME280;37287;47.554;7.844;2023-02-13T08:06:51;99744.84;;;3.08;100.00
50790;BME280;37287;47.554;7.844;2023-02-13T08:09:22;99754.19;;;3.10;100.00
50790;BME280;37287;47.554;7.844;2023-02-13T08:12:08;99756.56;;;3.17;100.00
50790;BME280;37287;47.554;7.844;2023-02-13T08:14:35;99762.38;;;3.24;100.00
50790;BME280;37287;47.554;7.844;2023-02-13T08:17:01;99758.56;;;3.36;100.00
50790;BME280;37287;47.554;7.844;2023-02-13T08:19:28;99758.69;;;3.50;100.00
50790;BME280;37287;47.554;7.844;2023-02-13T08:21:55;99754.69;;;3.76;100.00
50790;BME280;37287;47.554;7.844;2023-02-13T08:24:25;99758.41;;;3.81;100.00
50790;BME280;37287;47.554;7.844;2023-02-13T08:26:56;99757.38;;;3.76;100.00
50790;BME280;37287;47.554;7.844;2023-02-13T08:29:22;99759.03;;;3.72;100.00
50790;BME280;37287;47.554;7.844;2023-02-13T08:31:49;99755.94;;;3.84;100.00
50790;BME280;37287;47.554;7.844;2023-02-13T08:34:15;99758.41;;;4.05;100.00
50790;BME280;37287;47.554;7.844;2023-02-13T08:36:42;99751.50;;;3.99;100.00
50790;BME280;37287;47.554;7.844;2023-02-13T08:39:09;99748.81;;;3.99;100.00
50790;BME280;37287;47.554;7.844;2023-02-13T08:41:37;99750.78;;;4.17;100.00
50790;BME280;37287;47.554;7.844;2023-02-13T08:44:06;99740.09;;;4.12;100.00
50790;BME280;37287;47.554;7.844;2023-02-13T08:46:36;99751.38;;;4.33;100.00
50790;BME280;37287;47.554;7.844;2023-02-13T08:49:04;99757.69;;;4.42;100.00
50790;BME280;37287;47.554;7.844;2023-02-13T08:51:31;99746.78;;;4.77;100.00
50790;BME280;37287;47.554;7.844;2023-02-13T08:53:58;99760.53;;;4.70;100.00
50790;BME280;37287;47.554;7.844;2023-02-13T08:56:29;99756.03;;;4.85;100.00
50790;BME280;37287;47.554;7.844;2023-02-13T08:58:55;99763.03;;;4.67;100.00
50790;BME280;37287;47.554;7.844;2023-02-13T09:01:22;99761.34;;;4.71;100.00
50790;BME280;37287;47.554;7.844;2023-02-13T09:03:51;99755.44;;;4.50;100.00
50790;BME280;37287;47.554;7.844;2023-02-13T09:06:19;99760.78;;;4.30;100.00
50790;BME280;37287;47.554;7.844;2023-02-13T09:08:47;99757.13;;;4.64;100.00
50790;BME280;37287;47.554;7.844;2023-02-13T09:11:13;99766.94;;;4.74;100.00
50790;BME280;37287;47.554;7.844;2023-02-13T09:13:42;99766.63;;;4.76;100.00
50790;BME280;37287;47.554;7.844;2023-02-13T09:16:09;99764.91;;;4.66;100.00
50790;BME280;37287;47.554;7.844;2023-02-13T09:18:36;99773.81;;;4.61;100.00
50790;BME280;37287;47.554;7.844;2023-02-13T09:21:05;99772.06;;;4.71;100.00
50790;BME280;37287;47.554;7.844;2023-02-13T09:23:34;99764.38;;;4.83;100.00
50790;BME280;37287;47.554;7.844;2023-02-13T09:26:05;99767.44;;;4.95;100.00
50790;BME280;37287;47.554;7.844;2023-02-13T09:28:33;99771.03;;;5.05;99.12
50790;BME280;37287;47.554;7.844;2023-02-13T09:31:09;99772.34;;;5.26;98.54
50790;BME280;37287;47.554;7.844;2023-02-13T09:33:38;99778.78;;;5.25;98.02
50790;BME280;37287;47.554;7.844;2023-02-13T09:36:07;99769.25;;;5.19;97.49
50790;BME280;37287;47.554;7.844;2023-02-13T09:38:34;99780.88;;;5.28;97.64
50790;BME280;37287;47.554;7.844;2023-02-13T09:41:07;99767.88;;;5.36;96.96
50790;BME280;37287;47.554;7.844;2023-02-13T09:43:36;99774.06;;;5.36;95.35
50790;BME280;37287;47.554;7.844;2023-02-13T09:46:12;99770.31;;;5.51;96.16
50790;BME280;37287;47.554;7.844;2023-02-13T09:48:41;99772.41;;;5.54;95.75
50790;BME280;37287;47.554;7.844;2023-02-13T09:51:23;99778.97;;;5.48;94.08
50790;BME280;37287;47.554;7.844;2023-02-13T09:53:54;99770.19;;;5.42;94.62
50790;BME280;37287;47.554;7.844;2023-02-13T10:08:17;99765.50;;;5.81;90.32
50790;BME280;37287;47.554;7.844;2023-02-13T10:14:04;99768.41;;;5.84;92.36
50790;BME280;37287;47.554;7.844;2023-02-13T10:19:46;99779.38;;;5.55;91.36
50790;BME280;37287;47.554;7.844;2023-02-13T10:22:22;99772.97;;;5.70;93.24
50790;BME280;37287;47.554;7.844;2023-02-13T10:25:09;99777.06;;;5.81;93.16
50790;BME280;37287;47.554;7.844;2023-02-13T10:27:42;99781.53;;;5.86;91.83
50790;BME280;37287;47.554;7.844;2023-02-13T10:30:20;99780.84;;;5.80;90.89
50790;BME280;37287;47.554;7.844;2023-02-13T10:32:59;99774.41;;;5.62;90.66
50790;BME280;37287;47.554;7.844;2023-02-13T10:38:59;99763.81;;;5.85;88.10
50790;BME280;37287;47.554;7.844;2023-02-13T10:41:31;99755.44;;;5.86;87.60
50790;BME280;37287;47.554;7.844;2023-02-13T10:55:21;99738.06;;;6.12;87.71
50790;BME280;37287;47.554;7.844;2023-02-13T11:00:28;99740.66;;;6.03;86.08
50790;BME280;37287;47.554;7.844;2023-02-13T11:02:59;99741.69;;;5.88;85.92
50790;BME280;37287;47.554;7.844;2023-02-13T11:05:35;99741.94;;;6.06;86.96
50790;BME280;37287;47.554;7.844;2023-02-13T11:08:24;99735.50;;;6.07;86.93
50790;BME280;37287;47.554;7.844;2023-02-13T11:10:51;99734.97;;;6.18;87.22
50790;BME280;37287;47.554;7.844;2023-02-13T11:13:20;99736.84;;;6.32;86.14
50790;BME280;37287;47.554;7.844;2023-02-13T11:16:08;99743.44;;;6.12;84.82
50790;BME280;37287;47.554;7.844;2023-02-13T11:18:48;99731.97;;;6.20;85.88
50790;BME280;37287;47.554;7.844;2023-02-13T11:21:20;99742.03;;;6.14;84.91
50790;BME280;37287;47.554;7.844;2023-02-13T11:23:52;99730.50;;;6.14;84.78
50790;BME280;37287;47.554;7.844;2023-02-13T11:26:28;99732.50;;;6.08;85.49
50790;BME280;37287;47.554;7.844;2023-02-13T11:29:00;99744.81;;;6.09;84.58
50790;BME280;37287;47.554;7.844;2023-02-13T11:31:32;99726.31;;;6.08;85.12
50790;BME280;37287;47.554;7.844;2023-02-13T11:34:26;99720.53;;;6.14;85.39
50790;BME280;37287;47.554;7.844;2023-02-13T11:37:08;99730.88;;;6.35;85.98
50790;BME280;37287;47.554;7.844;2023-02-13T11:39:41;99716.44;;;6.31;85.44
50790;BME280;37287;47.554;7.844;2023-02-13T11:42:13;99711.75;;;6.23;84.75
50790;BME280;37287;47.554;7.844;2023-02-13T11:44:41;99726.28;;;6.35;85.38
50790;BME280;37287;47.554;7.844;2023-02-13T11:47:09;99714.91;;;6.39;85.24
50790;BME280;37287;47.554;7.844;2023-02-13T11:49:37;99711.53;;;6.33;85.12
50790;BME280;37287;47.554;7.844;2023-02-13T11:52:06;99715.91;;;6.43;85.23
50790;BME280;37287;47.554;7.844;2023-02-13T11:54:54;99705.84;;;6.34;84.81
50790;BME280;37287;47.554;7.844;2023-02-13T11:57:32;99698.78;;;6.39;84.78
50790;BME280;37287;47.554;7.844;2023-02-13T12:02:55;99700.94;;;6.50;85.42
50790;BME280;37287;47.554;7.844;2023-02-13T12:05:28;99703.59;;;6.64;84.50
50790;BME280;37287;47.554;7.844;2023-02-13T12:07:59;99703.53;;;6.42;83.19
50790;BME280;37287;47.554;7.844;2023-02-13T12:10:29;99705.34;;;6.46;84.12
50790;BME280;37287;47.554;7.844;2023-02-13T12:13:11;99695.56;;;6.50;83.44
50790;BME280;37287;47.554;7.844;2023-02-13T12:15:39;99700.81;;;6.56;83.89
50790;BME280;37287;47.554;7.844;2023-02-13T12:29:44;99688.56;;;6.63;84.24
50790;BME280;37287;47.554;7.844;2023-02-13T12:35:40;99686.34;;;6.65;83.46
50790;BME280;37287;47.554;7.844;2023-02-13T12:41:20;99661.66;;;6.63;84.91
50790;BME280;37287;47.554;7.844;2023-02-13T12:46:51;99663.03;;;6.61;83.41
50790;BME280;37287;47.554;7.844;2023-02-13T13:03:08;99655.13;;;6.64;84.39
50790;BME280;37287;47.554;7.844;2023-02-13T13:15:16;99636.56;;;6.77;83.99
50790;BME280;37287;47.554;7.844;2023-02-13T13:20:58;99649.09;;;6.81;83.22
50790;BME280;37287;47.554;7.844;2023-02-13T13:23:41;99640.59;;;6.88;83.49
50790;BME280;37287;47.554;7.844;2023-02-13T13:26:37;99642.66;;;6.91;83.79
50790;BME280;37287;47.554;7.844;2023-02-13T13:31:52;99643.63;;;6.95;81.43
50790;BME280;37287;47.554;7.844;2023-02-13T13:34:24;99640.03;;;7.00;82.36
50790;BME280;37287;47.554;7.844;2023-02-13T13:36:59;99627.34;;;7.00;81.93
50790;BME280;37287;47.554;7.844;2023-02-13T13:39:51;99620.88;;;7.01;82.56
50790;BME280;37287;47.554;7.844;2023-02-13T13:42:46;99625.63;;;7.04;81.89
50790;BME280;37287;47.554;7.844;2023-02-13T13:48:00;99627.09;;;7.11;82.01
50790;BME280;37287;47.554;7.844;2023-02-13T13:50:34;99627.72;;;7.08;80.74
50790;BME280;37287;47.554;7.844;2023-02-13T13:53:19;99630.88;;;7.10;81.17
50790;BME280;37287;47.554;7.844;2023-02-13T14:04:00;99613.66;;;7.19;80.17
50790;BME280;37287;47.554;7.844;2023-02-13T14:09:38;99612.91;;;7.28;80.11
50790;BME280;37287;47.554;7.844;2023-02-13T14:14:53;99624.84;;;7.35;79.95
50790;BME280;37287;47.554;7.844;2023-02-13T14:20:35;99619.31;;;7.40;80.24
50790;BME280;37287;47.554;7.844;2023-02-13T14:25:40;99615.50;;;7.42;80.77
50790;BME280;37287;47.554;7.844;2023-02-13T14:28:19;99613.75;;;7.37;80.16
50790;BME280;37287;47.554;7.844;2023-02-13T14:30:49;99620.72;;;7.38;79.57
50790;BME280;37287;47.554;7.844;2023-02-13T14:33:27;99616.13;;;7.38;80.43
50790;BME280;37287;47.554;7.844;2023-02-13T14:36:02;99618.28;;;7.28;79.04
50790;BME280;37287;47.554;7.844;2023-02-13T14:38:29;99616.56;;;7.32;78.95
50790;BME280;37287;47.554;7.844;2023-02-13T14:40:59;99614.06;;;7.35;79.15
50790;BME280;37287;47.554;7.844;2023-02-13T14:43:45;99611.69;;;7.34;79.19
50790;BME280;37287;47.554;7.844;2023-02-13T14:46:22;99617.34;;;7.32;79.32
50790;BME280;37287;47.554;7.844;2023-02-13T14:49:22;99609.91;;;7.29;80.40
50790;BME280;37287;47.554;7.844;2023-02-13T14:51:57;99614.19;;;7.30;80.27
50790;BME280;37287;47.554;7.844;2023-02-13T14:54:32;99615.91;;;7.26;79.71
50790;BME280;37287;47.554;7.844;2023-02-13T14:57:16;99616.53;;;7.23;79.53
50790;BME280;37287;47.554;7.844;2023-02-13T14:59:49;99611.94;;;7.23;79.14
50790;BME280;37287;47.554;7.844;2023-02-13T15:02:25;99603.06;;;7.23;80.28
50790;BME280;37287;47.554;7.844;2023-02-13T15:05:12;99601.78;;;7.20;79.83
50790;BME280;37287;47.554;7.844;2023-02-13T15:07:49;99606.69;;;7.18;79.82
50790;BME280;37287;47.554;7.844;2023-02-13T15:13:01;99600.34;;;7.14;80.20
50790;BME280;37287;47.554;7.844;2023-02-13T15:15:34;99604.91;;;7.14;80.37
50790;BME280;37287;47.554;7.844;2023-02-13T15:18:06;99604.91;;;7.14;80.00
50790;BME280;37287;47.554;7.844;2023-02-13T15:20:38;99598.44;;;7.15;80.00
50790;BME280;37287;47.554;7.844;2023-02-13T15:23:16;99600.34;;;7.14;79.70
50790;BME280;37287;47.554;7.844;2023-02-13T15:25:45;99588.28;;;7.12;80.42
50790;BME280;37287;47.554;7.844;2023-02-13T15:28:18;99585.59;;;7.12;79.29
50790;BME280;37287;47.554;7.844;2023-02-13T15:31:04;99584.00;;;7.11;80.82
50790;BME280;37287;47.554;7.844;2023-02-13T15:33:44;99583.03;;;7.06;80.69
50790;BME280;37287;47.554;7.844;2023-02-13T15:36:18;99592.81;;;7.02;81.15
50790;BME280;37287;47.554;7.844;2023-02-13T15:39:00;99586.66;;;7.02;81.67
50790;BME280;37287;47.554;7.844;2023-02-13T15:41:41;99589.66;;;7.00;81.74
50790;BME280;37287;47.554;7.844;2023-02-13T15:44:19;99584.91;;;6.97;81.66
50790;BME280;37287;47.554;7.844;2023-02-13T15:46:48;99584.41;;;6.95;81.58
50790;BME280;37287;47.554;7.844;2023-02-13T15:49:21;99581.84;;;6.90;81.34
50790;BME280;37287;47.554;7.844;2023-02-13T15:52:01;99583.56;;;6.86;81.61
50790;BME280;37287;47.554;7.844;2023-02-13T15:54:31;99589.19;;;6.76;81.19
50790;BME280;37287;47.554;7.844;2023-02-13T15:56:59;99585.03;;;6.69;81.55
50790;BME280;37287;47.554;7.844;2023-02-13T15:59:32;99587.84;;;6.64;82.44
50790;BME280;37287;47.554;7.844;2023-02-13T16:02:03;99582.78;;;6.63;82.23